sensor_id;sensor_type;location;lat;lon;timestamp;pressure;altitude;pressure_sealevel;temperature;humidity
7730;BME280;3908;52.310;7.230;2022-08-21T00:00:21;51295.69;;;-145.83;82.63
7730;BME280;3908;52.310;7.230;2022-08-21T00:03:11;51272.22;;;-145.83;82.85
7730;BME280;3908;52.310;7.230;2022-08-21T00:05:59;51266.34;;;-145.83;82.82
7730;BME280;3908;52.310;7.230;2022-08-21T00:08:46;51309.38;;;-145.83;82.92
7730;BME280;3908;52.310;7.230;2022-08-21T00:11:34;51244.81;;;-145.83;82.74
7730;BME280;3908;52.310;7.230;2022-08-21T00:14:25;51281.97;;;-145.83;82.95
7730;BME280;3908;52.310;7.230;2022-08-21T00:17:12;51313.28;;;-145.83;82.96
7730;BME280;3908;52.310;7.230;2022-08-21T00:19:59;51272.22;;;-145.83;83.33
7730;BME280;3908;52.310;7.230;2022-08-21T00:22:49;51258.50;;;-145.83;83.44
7730;BME280;3908;52.310;7.230;2022-08-21T00:25:37;51295.69;;;-145.83;83.23
7730;BME280;3908;52.310;7.230;2022-08-21T00:28:24;51289.81;;;-145.83;83.27
7730;BME280;3908;52.310;7.230;2022-08-21T00:31:12;51285.91;;;-145.83;83.97
7730;BME280;3908;52.310;7.230;2022-08-21T00:33:59;51278.06;;;-145.83;83.58
7730;BME280;3908;52.310;7.230;2022-08-21T00:36:49;51287.84;;;-145.83;83.59
7730;BME280;3908;52.310;7.230;2022-08-21T00:39:37;51272.22;;;-145.83;83.66
7730;BME280;3908;52.310;7.230;2022-08-21T00:42:25;51238.94;;;-145.83;83.95
7730;BME280;3908;52.310;7.230;2022-08-21T00:45:13;51266.34;;;-145.83;84.14
7730;BME280;3908;52.310;7.230;2022-08-21T00:48:01;51270.25;;;-145.83;84.41
7730;BME280;3908;52.310;7.230;2022-08-21T00:50:51;51266.34;;;-145.83;84.62
7730;BME280;3908;52.310;7.230;2022-08-21T00:53:41;51285.91;;;-145.83;84.89
7730;BME280;3908;52.310;7.230;2022-08-21T00:56:31;51254.59;;;-145.83;85.04
7730;BME280;3908;52.310;7.230;2022-08-21T00:59:20;51262.44;;;-145.83;85.35
7730;BME280;3908;52.310;7.230;2022-08-21T01:02:08;51285.91;;;-145.83;85.34
7730;BME280;3908;52.310;7.230;2022-08-21T01:04:56;51262.44;;;-145.83;85.40
7730;BME280;3908;52.310;7.230;2022-08-21T01:07:43;51268.28;;;-145.83;85.53
7730;BME280;3908;52.310;7.230;2022-08-21T01:10:31;51258.50;;;-145.83;85.51
7730;BME280;3908;52.310;7.230;2022-08-21T01:13:21;51301.53;;;-145.83;85.14
7730;BME280;3908;52.310;7.230;2022-08-21T01:16:10;51254.59;;;-145.83;84.80
7730;BME280;3908;52.310;7.230;2022-08-21T01:18:57;51260.47;;;-145.83;85.05
7730;BME280;3908;52.310;7.230;2022-08-21T01:21:46;51250.69;;;-145.83;85.11
7730;BME280;3908;52.310;7.230;2022-08-21T01:24:33;51297.63;;;-145.83;85.39
7730;BME280;3908;52.310;7.230;2022-08-21T01:27:20;51272.22;;;-145.83;85.32
7730;BME280;3908;52.310;7.230;2022-08-21T01:30:11;51233.06;;;-145.83;86.07
7730;BME280;3908;52.310;7.230;2022-08-21T01:32:59;51256.56;;;-145.83;86.04
7730;BME280;3908;52.310;7.230;2022-08-21T01:35:46;51242.84;;;-145.83;85.91
7730;BME280;3908;52.310;7.230;2022-08-21T01:38:34;51227.22;;;-145.83;86.28
7730;BME280;3908;52.310;7.230;2022-08-21T01:41:21;51248.72;;;-145.83;86.61
7730;BME280;3908;52.310;7.230;2022-08-21T01:44:09;51252.66;;;-145.83;86.66
7730;BME280;3908;52.310;7.230;2022-08-21T01:46:59;51268.28;;;-145.83;86.25
7730;BME280;3908;52.310;7.230;2022-08-21T01:49:48;51246.78;;;-145.83;86.09
7730;BME280;3908;52.310;7.230;2022-08-21T01:52:38;51229.16;;;-145.83;86.59
7730;BME280;3908;52.310;7.230;2022-08-21T01:55:27;51244.81;;;-145.83;87.26
7730;BME280;3908;52.310;7.230;2022-08-21T01:58:14;51233.06;;;-145.83;87.84
7730;BME280;3908;52.310;7.230;2022-08-21T02:01:01;51242.84;;;-145.83;88.17
7730;BME280;3908;52.310;7.230;2022-08-21T02:03:49;51209.59;;;-145.83;88.47
7730;BME280;3908;52.310;7.230;2022-08-21T02:06:36;51262.44;;;-145.83;89.96
7730;BME280;3908;52.310;7.230;2022-08-21T02:09:24;51250.69;;;-145.83;90.29
7730;BME280;3908;52.310;7.230;2022-08-21T02:12:12;51235.03;;;-145.83;89.82
7730;BME280;3908;52.310;7.230;2022-08-21T02:14:59;51221.34;;;-145.83;90.07
7730;BME280;3908;52.310;7.230;2022-08-21T02:17:49;51258.50;;;-145.83;90.27
7730;BME280;3908;52.310;7.230;2022-08-21T02:20:39;51201.78;;;-145.83;90.62
7730;BME280;3908;52.310;7.230;2022-08-21T02:23:27;51238.94;;;-145.83;90.04
7730;BME280;3908;52.310;7.230;2022-08-21T02:26:14;51250.69;;;-145.83;90.17
7730;BME280;3908;52.310;7.230;2022-08-21T02:29:06;51252.66;;;-145.83;90.50
7730;BME280;3908;52.310;7.230;2022-08-21T02:31:53;51266.34;;;-145.83;90.43
7730;BME280;3908;52.310;7.230;2022-08-21T02:34:40;51258.50;;;-145.83;89.67
7730;BME280;3908;52.310;7.230;2022-08-21T02:37:27;51235.03;;;-145.83;89.99
7730;BME280;3908;52.310;7.230;2022-08-21T02:40:16;51266.34;;;-145.83;89.93
7730;BME280;3908;52.310;7.230;2022-08-21T02:43:05;51254.59;;;-145.83;90.07
7730;BME280;3908;52.310;7.230;2022-08-21T02:45:56;51248.72;;;-145.83;91.80
7730;BME280;3908;52.310;7.230;2022-08-21T02:48:44;51242.84;;;-145.83;91.35
7730;BME280;3908;52.310;7.230;2022-08-21T02:51:32;51252.66;;;-145.83;90.65
7730;BME280;3908;52.310;7.230;2022-08-21T02:54:19;51221.34;;;-145.83;90.95
7730;BME280;3908;52.310;7.230;2022-08-21T02:57:06;51227.22;;;-145.83;90.96
7730;BME280;3908;52.310;7.230;2022-08-21T02:59:53;51252.66;;;-145.83;90.30
7730;BME280;3908;52.310;7.230;2022-08-21T03:02:42;51278.06;;;-145.83;90.42
7730;BME280;3908;52.310;7.230;2022-08-21T03:05:32;51233.06;;;-145.83;90.38
7730;BME280;3908;52.310;7.230;2022-08-21T03:08:21;51244.81;;;-145.83;90.11
7730;BME280;3908;52.310;7.230;2022-08-21T03:11:08;51246.78;;;-145.83;90.13
7730;BME280;3908;52.310;7.230;2022-08-21T03:13:55;51231.13;;;-145.83;90.34
7730;BME280;3908;52.310;7.230;2022-08-21T03:16:42;51266.34;;;-145.83;90.82
7730;BME280;3908;52.310;7.230;2022-08-21T03:19:31;51250.69;;;-145.83;91.11
7730;BME280;3908;52.310;7.230;2022-08-21T03:22:18;51248.72;;;-145.83;90.48
7730;BME280;3908;52.310;7.230;2022-08-21T03:25:06;51248.72;;;-145.83;89.93
7730;BME280;3908;52.310;7.230;2022-08-21T03:27:53;51229.16;;;-145.83;90.04
7730;BME280;3908;52.310;7.230;2022-08-21T03:30:41;51227.22;;;-145.83;90.59
7730;BME280;3908;52.310;7.230;2022-08-21T03:33:33;51235.03;;;-145.83;90.43
7730;BME280;3908;52.310;7.230;2022-08-21T03:36:21;51235.03;;;-145.83;90.70
7730;BME280;3908;52.310;7.230;2022-08-21T03:39:09;51252.66;;;-145.83;90.46
7730;BME280;3908;52.310;7.230;2022-08-21T03:41:57;51266.34;;;-145.83;90.49
7730;BME280;3908;52.310;7.230;2022-08-21T03:44:44;51262.44;;;-145.83;91.32
7730;BME280;3908;52.310;7.230;2022-08-21T03:47:31;51246.78;;;-145.83;91.54
7730;BME280;3908;52.310;7.230;2022-08-21T03:50:19;51221.34;;;-145.83;91.26
7730;BME280;3908;52.310;7.230;2022-08-21T03:53:08;51242.84;;;-145.83;90.97
7730;BME280;3908;52.310;7.230;2022-08-21T03:55:55;51203.72;;;-145.83;90.99
7730;BME280;3908;52.310;7.230;2022-08-21T03:58:43;51207.66;;;-145.83;91.34
7730;BME280;3908;52.310;7.230;2022-08-21T04:01:31;51235.03;;;-145.83;92.23
7730;BME280;3908;52.310;7.230;2022-08-21T04:04:18;51240.91;;;-145.83;93.01
7730;BME280;3908;52.310;7.230;2022-08-21T04:07:05;51258.50;;;-145.83;92.95
7730;BME280;3908;52.310;7.230;2022-08-21T04:09:54;51170.47;;;-145.83;92.49
7730;BME280;3908;52.310;7.230;2022-08-21T04:12:41;51252.66;;;-145.83;92.02
7730;BME280;3908;52.310;7.230;2022-08-21T04:15:28;51256.56;;;-145.83;92.19
7730;BME280;3908;52.310;7.230;2022-08-21T04:18:16;51211.56;;;-145.83;92.15
7730;BME280;3908;52.310;7.230;2022-08-21T04:21:03;51211.56;;;-145.83;91.91
7730;BME280;3908;52.310;7.230;2022-08-21T04:23:53;51246.78;;;-145.83;91.37
7730;BME280;3908;52.310;7.230;2022-08-21T04:26:42;51268.28;;;-145.83;91.40
7730;BME280;3908;52.310;7.230;2022-08-21T04:29:29;51260.47;;;-145.83;91.18
7730;BME280;3908;52.310;7.230;2022-08-21T04:32:21;51205.69;;;-145.83;91.13
7730;BME280;3908;52.310;7.230;2022-08-21T04:35:10;51268.28;;;-145.83;91.38
7730;BME280;3908;52.310;7.230;2022-08-21T04:37:57;51235.03;;;-145.83;91.63
7730;BME280;3908;52.310;7.230;2022-08-21T04:40:45;51207.66;;;-145.83;91.68
7730;BME280;3908;52.310;7.230;2022-08-21T04:43:33;51235.03;;;-145.83;91.25
7730;BME280;3908;52.310;7.230;2022-08-21T04:46:21;51250.69;;;-145.83;91.20
7730;BME280;3908;52.310;7.230;2022-08-21T04:49:08;51242.84;;;-145.83;91.18
7730;BME280;3908;52.310;7.230;2022-08-21T04:51:55;51229.16;;;-145.83;91.73
7730;BME280;3908;52.310;7.230;2022-08-21T04:54:42;51231.13;;;-145.83;91.80
7730;BME280;3908;52.310;7.230;2022-08-21T04:57:31;51268.28;;;-145.83;91.63
7730;BME280;3908;52.310;7.230;2022-08-21T05:00:20;51225.25;;;-145.83;91.13
7730;BME280;3908;52.310;7.230;2022-08-21T05:03:11;51272.22;;;-145.83;90.62
7730;BME280;3908;52.310;7.230;2022-08-21T05:06:00;51260.47;;;-145.83;89.59
7730;BME280;3908;52.310;7.230;2022-08-21T05:08:52;51262.44;;;-145.83;89.02
7730;BME280;3908;52.310;7.230;2022-08-21T05:11:41;51272.22;;;-145.83;88.30
7730;BME280;3908;52.310;7.230;2022-08-21T05:14:29;51242.84;;;-145.83;88.09
7730;BME280;3908;52.310;7.230;2022-08-21T05:17:20;51272.22;;;-145.83;86.98
7730;BME280;3908;52.310;7.230;2022-08-21T05:20:07;51274.16;;;-145.83;85.74
7730;BME280;3908;52.310;7.230;2022-08-21T05:22:55;51260.47;;;-145.83;84.97
7730;BME280;3908;52.310;7.230;2022-08-21T05:25:42;51280.03;;;-145.83;84.12
7730;BME280;3908;52.310;7.230;2022-08-21T05:28:29;51276.13;;;-145.83;83.63
7730;BME280;3908;52.310;7.230;2022-08-21T05:31:17;51293.72;;;-145.83;83.42
7730;BME280;3908;52.310;7.230;2022-08-21T05:34:05;51305.47;;;-145.83;82.86
7730;BME280;3908;52.310;7.230;2022-08-21T05:36:52;51274.16;;;-145.83;82.66
7730;BME280;3908;52.310;7.230;2022-08-21T05:39:40;51276.13;;;-145.83;82.15
7730;BME280;3908;52.310;7.230;2022-08-21T05:42:27;51301.53;;;-145.83;81.18
7730;BME280;3908;52.310;7.230;2022-08-21T05:45:15;51272.22;;;-145.83;81.20
7730;BME280;3908;52.310;7.230;2022-08-21T05:48:06;51315.25;;;-145.83;80.59
7730;BME280;3908;52.310;7.230;2022-08-21T05:50:54;51280.03;;;-145.83;80.16
7730;BME280;3908;52.310;7.230;2022-08-21T05:53:43;51313.28;;;-145.83;78.95
7730;BME280;3908;52.310;7.230;2022-08-21T05:56:31;51319.16;;;-145.83;78.23
7730;BME280;3908;52.310;7.230;2022-08-21T05:59:18;51330.91;;;-145.83;77.77
7730;BME280;3908;52.310;7.230;2022-08-21T06:02:05;51287.84;;;-145.83;76.74
7730;BME280;3908;52.310;7.230;2022-08-21T06:04:56;51317.19;;;-145.83;76.37
7730;BME280;3908;52.310;7.230;2022-08-21T06:07:44;51293.72;;;-145.83;75.51
7730;BME280;3908;52.310;7.230;2022-08-21T06:10:31;51301.53;;;-145.83;75.82
7730;BME280;3908;52.310;7.230;2022-08-21T06:13:20;51321.09;;;-145.83;74.88
7730;BME280;3908;52.310;7.230;2022-08-21T06:16:09;51325.03;;;-145.83;74.33
7730;BME280;3908;52.310;7.230;2022-08-21T06:18:59;51321.09;;;-145.83;73.52
7730;BME280;3908;52.310;7.230;2022-08-21T06:21:46;51323.06;;;-145.83;72.76
7730;BME280;3908;52.310;7.230;2022-08-21T06:24:35;51319.16;;;-145.83;72.00
7730;BME280;3908;52.310;7.230;2022-08-21T06:27:22;51328.94;;;-145.83;71.27
7730;BME280;3908;52.310;7.230;2022-08-21T06:30:10;51313.28;;;-145.83;71.19
7730;BME280;3908;52.310;7.230;2022-08-21T06:33:00;51289.81;;;-145.83;70.49
7730;BME280;3908;52.310;7.230;2022-08-21T06:35:47;51340.69;;;-145.83;69.94
7730;BME280;3908;52.310;7.230;2022-08-21T06:38:35;51366.09;;;-145.83;69.73
7730;BME280;3908;52.310;7.230;2022-08-21T06:41:24;51358.28;;;-145.83;68.49
7730;BME280;3908;52.310;7.230;2022-08-21T06:44:11;51334.81;;;-145.83;67.67
7730;BME280;3908;52.310;7.230;2022-08-21T06:46:58;51368.06;;;-145.83;68.31
7730;BME280;3908;52.310;7.230;2022-08-21T06:49:45;51352.41;;;-145.83;67.55
7730;BME280;3908;52.310;7.230;2022-08-21T06:52:32;51370.03;;;-145.83;67.71
7730;BME280;3908;52.310;7.230;2022-08-21T06:55:19;51360.22;;;-145.83;66.71
7730;BME280;3908;52.310;7.230;2022-08-21T06:58:09;51346.53;;;-145.83;66.15
7730;BME280;3908;52.310;7.230;2022-08-21T07:00:57;51379.81;;;-145.83;65.45
7730;BME280;3908;52.310;7.230;2022-08-21T07:03:44;51362.19;;;-145.83;64.76
7730;BME280;3908;52.310;7.230;2022-08-21T07:06:31;51354.38;;;-145.83;64.45
7730;BME280;3908;52.310;7.230;2022-08-21T07:09:18;51334.81;;;-145.83;64.42
7730;BME280;3908;52.310;7.230;2022-08-21T07:12:06;51401.31;;;-145.83;63.20
7730;BME280;3908;52.310;7.230;2022-08-21T07:14:55;51360.22;;;-145.83;61.59
7730;BME280;3908;52.310;7.230;2022-08-21T07:17:43;51362.19;;;-145.83;62.38
7730;BME280;3908;52.310;7.230;2022-08-21T07:20:31;51405.22;;;-145.83;61.42
7730;BME280;3908;52.310;7.230;2022-08-21T07:23:21;51391.53;;;-145.83;60.92
7730;BME280;3908;52.310;7.230;2022-08-21T07:26:09;51383.72;;;-145.83;59.16
7730;BME280;3908;52.310;7.230;2022-08-21T07:28:57;51336.75;;;-145.83;58.60
7730;BME280;3908;52.310;7.230;2022-08-21T07:31:45;51375.88;;;-145.83;58.65
7730;BME280;3908;52.310;7.230;2022-08-21T07:34:32;51366.09;;;-145.83;59.61
7730;BME280;3908;52.310;7.230;2022-08-21T07:37:19;51411.09;;;-145.83;60.20
7730;BME280;3908;52.310;7.230;2022-08-21T07:40:07;51418.94;;;-145.83;57.70
7730;BME280;3908;52.310;7.230;2022-08-21T07:42:55;51391.53;;;-145.83;56.64
7730;BME280;3908;52.310;7.230;2022-08-21T07:45:42;51379.81;;;-145.83;55.59
7730;BME280;3908;52.310;7.230;2022-08-21T07:48:31;51371.97;;;-145.83;56.17
7730;BME280;3908;52.310;7.230;2022-08-21T07:51:21;51399.38;;;-145.83;58.00
7730;BME280;3908;52.310;7.230;2022-08-21T07:54:09;51428.72;;;-145.83;57.37
7730;BME280;3908;52.310;7.230;2022-08-21T07:56:56;51413.06;;;-145.83;56.58
7730;BME280;3908;52.310;7.230;2022-08-21T07:59:43;51450.22;;;-145.83;56.12
7730;BME280;3908;52.310;7.230;2022-08-21T08:02:30;51403.28;;;-145.83;54.04
7730;BME280;3908;52.310;7.230;2022-08-21T08:05:21;51442.41;;;-145.83;53.98
7730;BME280;3908;52.310;7.230;2022-08-21T08:08:09;51438.50;;;-145.83;53.37
7730;BME280;3908;52.310;7.230;2022-08-21T08:10:57;51465.88;;;-145.83;52.66
7730;BME280;3908;52.310;7.230;2022-08-21T08:13:48;51428.72;;;-145.83;53.22
7730;BME280;3908;52.310;7.230;2022-08-21T08:16:36;51448.28;;;-145.83;53.41
7730;BME280;3908;52.310;7.230;2022-08-21T08:19:23;51438.50;;;-145.83;52.18
7730;BME280;3908;52.310;7.230;2022-08-21T08:22:16;51438.50;;;-145.83;52.90
7730;BME280;3908;52.310;7.230;2022-08-21T08:25:06;51454.13;;;-145.83;53.22
7730;BME280;3908;52.310;7.230;2022-08-21T08:27:56;51446.31;;;-145.83;52.33
7730;BME280;3908;52.310;7.230;2022-08-21T08:30:44;51463.91;;;-145.83;52.62
7730;BME280;3908;52.310;7.230;2022-08-21T08:33:31;51442.41;;;-145.83;52.08
7730;BME280;3908;52.310;7.230;2022-08-21T08:36:18;51456.09;;;-145.83;51.20
7730;BME280;3908;52.310;7.230;2022-08-21T08:39:07;51452.19;;;-145.83;51.18
7730;BME280;3908;52.310;7.230;2022-08-21T08:41:58;51503.06;;;-145.83;51.01
7730;BME280;3908;52.310;7.230;2022-08-21T08:44:48;51461.97;;;-145.83;50.88
7730;BME280;3908;52.310;7.230;2022-08-21T08:47:39;51428.72;;;-145.83;52.38
7730;BME280;3908;52.310;7.230;2022-08-21T08:50:37;51458.06;;;-145.83;51.55
7730;BME280;3908;52.310;7.230;2022-08-21T08:53:30;51446.31;;;-145.83;51.61
7730;BME280;3908;52.310;7.230;2022-08-21T08:56:23;51440.44;;;-145.83;50.33
7730;BME280;3908;52.310;7.230;2022-08-21T08:59:16;51475.66;;;-145.83;50.18
7730;BME280;3908;52.310;7.230;2022-08-21T09:02:04;51497.19;;;-145.83;50.01
7730;BME280;3908;52.310;7.230;2022-08-21T09:04:52;51477.63;;;-145.83;49.64
7730;BME280;3908;52.310;7.230;2022-08-21T09:07:46;51450.22;;;-145.83;48.94
7730;BME280;3908;52.310;7.230;2022-08-21T09:10:45;51469.78;;;-145.83;49.85
7730;BME280;3908;52.310;7.230;2022-08-21T09:13:47;51448.28;;;-145.83;49.86
7730;BME280;3908;52.310;7.230;2022-08-21T09:16:43;51438.50;;;-145.83;50.57
7730;BME280;3908;52.310;7.230;2022-08-21T09:19:43;51481.53;;;-145.83;50.37
7730;BME280;3908;52.310;7.230;2022-08-21T09:22:40;51438.50;;;-145.83;48.51
7730;BME280;3908;52.310;7.230;2022-08-21T09:25:34;51499.13;;;-145.83;47.92
7730;BME280;3908;52.310;7.230;2022-08-21T09:28:24;51463.91;;;-145.83;47.98
7730;BME280;3908;52.310;7.230;2022-08-21T09:31:23;51467.84;;;-145.83;47.14
7730;BME280;3908;52.310;7.230;2022-08-21T09:34:11;51416.97;;;-145.83;48.51
7730;BME280;3908;52.310;7.230;2022-08-21T09:36:59;51418.94;;;-145.83;47.60
7730;BME280;3908;52.310;7.230;2022-08-21T09:39:46;51454.13;;;-145.83;47.57
7730;BME280;3908;52.310;7.230;2022-08-21T09:42:33;51450.22;;;-145.83;49.29
7730;BME280;3908;52.310;7.230;2022-08-21T09:45:20;51463.91;;;-145.83;48.81
7730;BME280;3908;52.310;7.230;2022-08-21T09:48:14;51506.97;;;-145.83;48.45
7730;BME280;3908;52.310;7.230;2022-08-21T09:51:06;51497.19;;;-145.83;48.29
7730;BME280;3908;52.310;7.230;2022-08-21T09:53:58;51465.88;;;-145.83;46.71
7730;BME280;3908;52.310;7.230;2022-08-21T09:56:55;51503.06;;;-145.83;46.88
7730;BME280;3908;52.310;7.230;2022-08-21T10:00:16;51491.31;;;-145.83;46.12
7730;BME280;3908;52.310;7.230;2022-08-21T10:03:10;51491.31;;;-145.83;46.58
7730;BME280;3908;52.310;7.230;2022-08-21T10:06:00;51487.41;;;-145.83;45.38
7730;BME280;3908;52.310;7.230;2022-08-21T10:08:51;51465.88;;;-145.83;45.18
7730;BME280;3908;52.310;7.230;2022-08-21T10:11:39;51495.22;;;-145.83;44.59
7730;BME280;3908;52.310;7.230;2022-08-21T10:14:39;51505.00;;;-145.83;43.09
7730;BME280;3908;52.310;7.230;2022-08-21T10:17:43;51485.44;;;-145.83;44.03
7730;BME280;3908;52.310;7.230;2022-08-21T10:20:37;51508.91;;;-145.83;45.32
7730;BME280;3908;52.310;7.230;2022-08-21T10:23:41;51479.56;;;-145.83;44.63
7730;BME280;3908;52.310;7.230;2022-08-21T10:26:40;51477.63;;;-145.83;45.11
7730;BME280;3908;52.310;7.230;2022-08-21T10:29:42;51475.66;;;-145.83;44.70
7730;BME280;3908;52.310;7.230;2022-08-21T10:32:47;51487.41;;;-145.83;44.29
7730;BME280;3908;52.310;7.230;2022-08-21T10:35:43;51505.00;;;-145.83;44.61
7730;BME280;3908;52.310;7.230;2022-08-21T10:38:50;51479.56;;;-145.83;43.97
7730;BME280;3908;52.310;7.230;2022-08-21T10:41:54;51479.56;;;-145.83;45.34
7730;BME280;3908;52.310;7.230;2022-08-21T10:45:00;51503.06;;;-145.83;44.08
7730;BME280;3908;52.310;7.230;2022-08-21T10:47:52;51483.47;;;-145.83;44.10
7730;BME280;3908;52.310;7.230;2022-08-21T10:50:46;51481.53;;;-145.83;44.14
7730;BME280;3908;52.310;7.230;2022-08-21T10:53:50;51477.63;;;-145.83;43.89
7730;BME280;3908;52.310;7.230;2022-08-21T10:56:43;51491.31;;;-145.83;44.19
7730;BME280;3908;52.310;7.230;2022-08-21T10:59:39;51458.06;;;-145.83;42.83
7730;BME280;3908;52.310;7.230;2022-08-21T11:02:32;51467.84;;;-145.83;42.76
7730;BME280;3908;52.310;7.230;2022-08-21T11:05:25;51483.47;;;-145.83;44.20
7730;BME280;3908;52.310;7.230;2022-08-21T11:08:26;51510.88;;;-145.83;44.08
7730;BME280;3908;52.310;7.230;2022-08-21T11:11:20;51469.78;;;-145.83;42.14
7730;BME280;3908;52.310;7.230;2022-08-21T11:14:17;51506.97;;;-145.83;43.64
7730;BME280;3908;52.310;7.230;2022-08-21T11:17:09;51495.22;;;-145.83;43.17
7730;BME280;3908;52.310;7.230;2022-08-21T11:20:03;51467.84;;;-145.83;42.55
7730;BME280;3908;52.310;7.230;2022-08-21T11:22:56;51506.97;;;-145.83;42.49
7730;BME280;3908;52.310;7.230;2022-08-21T11:25:48;51487.41;;;-145.83;42.43
7730;BME280;3908;52.310;7.230;2022-08-21T11:28:43;51444.34;;;-145.83;43.99
7730;BME280;3908;52.310;7.230;2022-08-21T11:31:41;51475.66;;;-145.83;44.24
7730;BME280;3908;52.310;7.230;2022-08-21T11:34:45;51501.09;;;-145.83;43.21
7730;BME280;3908;52.310;7.230;2022-08-21T11:37:47;51479.56;;;-145.83;42.06
7730;BME280;3908;52.310;7.230;2022-08-21T11:40:46;51495.22;;;-145.83;43.19
7730;BME280;3908;52.310;7.230;2022-08-21T11:43:40;51467.84;;;-145.83;43.38
7730;BME280;3908;52.310;7.230;2022-08-21T11:46:36;51506.97;;;-145.83;44.56
7730;BME280;3908;52.310;7.230;2022-08-21T11:49:38;51461.97;;;-145.83;42.63
7730;BME280;3908;52.310;7.230;2022-08-21T11:52:31;51446.31;;;-145.83;41.75
7730;BME280;3908;52.310;7.230;2022-08-21T11:55:26;51481.53;;;-145.83;43.14
7730;BME280;3908;52.310;7.230;2022-08-21T11:58:19;51465.88;;;-145.83;42.96
7730;BME280;3908;52.310;7.230;2022-08-21T12:01:12;51489.34;;;-145.83;43.65
7730;BME280;3908;52.310;7.230;2022-08-21T12:04:06;51497.19;;;-145.83;42.38
7730;BME280;3908;52.310;7.230;2022-08-21T12:06:55;51467.84;;;-145.83;41.74
7730;BME280;3908;52.310;7.230;2022-08-21T12:09:55;51467.84;;;-145.83;41.95
7730;BME280;3908;52.310;7.230;2022-08-21T12:12:44;51461.97;;;-145.83;43.23
7730;BME280;3908;52.310;7.230;2022-08-21T12:15:31;51499.13;;;-145.83;42.44
7730;BME280;3908;52.310;7.230;2022-08-21T12:18:28;51499.13;;;-145.83;42.79
7730;BME280;3908;52.310;7.230;2022-08-21T12:21:21;51467.84;;;-145.83;43.63
7730;BME280;3908;52.310;7.230;2022-08-21T12:24:18;51450.22;;;-145.83;44.42
7730;BME280;3908;52.310;7.230;2022-08-21T12:27:19;51465.88;;;-145.83;44.02
7730;BME280;3908;52.310;7.230;2022-08-21T12:30:21;51452.19;;;-145.83;43.17
7730;BME280;3908;52.310;7.230;2022-08-21T12:33:22;51465.88;;;-145.83;42.46
7730;BME280;3908;52.310;7.230;2022-08-21T12:36:13;51503.06;;;-145.83;42.68
7730;BME280;3908;52.310;7.230;2022-08-21T12:39:04;51467.84;;;-145.83;43.19
7730;BME280;3908;52.310;7.230;2022-08-21T12:41:59;51469.78;;;-145.83;42.46
7730;BME280;3908;52.310;7.230;2022-08-21T12:44:53;51493.25;;;-145.83;41.97
7730;BME280;3908;52.310;7.230;2022-08-21T12:47:45;51491.31;;;-145.83;44.01
7730;BME280;3908;52.310;7.230;2022-08-21T12:50:37;51475.66;;;-145.83;42.17
7730;BME280;3908;52.310;7.230;2022-08-21T12:53:31;51479.56;;;-145.83;43.82
7730;BME280;3908;52.310;7.230;2022-08-21T12:56:23;51454.13;;;-145.83;44.48
7730;BME280;3908;52.310;7.230;2022-08-21T12:59:12;51446.31;;;-145.83;44.68
7730;BME280;3908;52.310;7.230;2022-08-21T13:02:01;51489.34;;;-145.83;44.06
7730;BME280;3908;52.310;7.230;2022-08-21T13:04:50;51481.53;;;-145.83;43.58
7730;BME280;3908;52.310;7.230;2022-08-21T13:07:44;51518.69;;;-145.83;43.49
7730;BME280;3908;52.310;7.230;2022-08-21T13:10:34;51485.44;;;-145.83;42.97
7730;BME280;3908;52.310;7.230;2022-08-21T13:13:25;51510.88;;;-145.83;42.13
7730;BME280;3908;52.310;7.230;2022-08-21T13:16:20;51489.34;;;-145.83;42.80
7730;BME280;3908;52.310;7.230;2022-08-21T13:19:11;51481.53;;;-145.83;41.82
7730;BME280;3908;52.310;7.230;2022-08-21T13:21:59;51479.56;;;-145.83;42.26
7730;BME280;3908;52.310;7.230;2022-08-21T13:24:47;51430.66;;;-145.83;43.84
7730;BME280;3908;52.310;7.230;2022-08-21T13:27:36;51440.44;;;-145.83;44.07
7730;BME280;3908;52.310;7.230;2022-08-21T13:30:23;51436.53;;;-145.83;44.77
7730;BME280;3908;52.310;7.230;2022-08-21T13:33:14;51442.41;;;-145.83;43.75
7730;BME280;3908;52.310;7.230;2022-08-21T13:36:05;51446.31;;;-145.83;45.75
7730;BME280;3908;52.310;7.230;2022-08-21T13:38:55;51450.22;;;-145.83;43.97
7730;BME280;3908;52.310;7.230;2022-08-21T13:41:44;51458.06;;;-145.83;45.50
7730;BME280;3908;52.310;7.230;2022-08-21T13:44:36;51475.66;;;-145.83;42.63
7730;BME280;3908;52.310;7.230;2022-08-21T13:47:24;51495.22;;;-145.83;42.46
7730;BME280;3908;52.310;7.230;2022-08-21T13:50:13;51432.63;;;-145.83;45.75
7730;BME280;3908;52.310;7.230;2022-08-21T13:53:05;51438.50;;;-145.83;42.95
7730;BME280;3908;52.310;7.230;2022-08-21T13:55:53;51489.34;;;-145.83;44.05
7730;BME280;3908;52.310;7.230;2022-08-21T13:58:43;51475.66;;;-145.83;43.94
7730;BME280;3908;52.310;7.230;2022-08-21T14:01:34;51477.63;;;-145.83;44.40
7730;BME280;3908;52.310;7.230;2022-08-21T14:04:24;51477.63;;;-145.83;42.32
7730;BME280;3908;52.310;7.230;2022-08-21T14:07:17;51489.34;;;-145.83;43.94
7730;BME280;3908;52.310;7.230;2022-08-21T14:10:07;51452.19;;;-145.83;42.65
7730;BME280;3908;52.310;7.230;2022-08-21T14:12:59;51461.97;;;-145.83;42.84
7730;BME280;3908;52.310;7.230;2022-08-21T14:15:55;51461.97;;;-145.83;42.72
7730;BME280;3908;52.310;7.230;2022-08-21T14:18:47;51438.50;;;-145.83;44.31
7730;BME280;3908;52.310;7.230;2022-08-21T14:21:37;51446.31;;;-145.83;41.70
7730;BME280;3908;52.310;7.230;2022-08-21T14:24:26;51452.19;;;-145.83;41.62
7730;BME280;3908;52.310;7.230;2022-08-21T14:27:17;51426.75;;;-145.83;42.94
7730;BME280;3908;52.310;7.230;2022-08-21T14:30:18;51479.56;;;-145.83;43.32
7730;BME280;3908;52.310;7.230;2022-08-21T14:33:09;51430.66;;;-145.83;44.59
7730;BME280;3908;52.310;7.230;2022-08-21T14:35:59;51438.50;;;-145.83;42.66
7730;BME280;3908;52.310;7.230;2022-08-21T14:38:47;51461.97;;;-145.83;43.70
7730;BME280;3908;52.310;7.230;2022-08-21T14:41:35;51497.19;;;-145.83;43.07
7730;BME280;3908;52.310;7.230;2022-08-21T14:44:23;51483.47;;;-145.83;42.58
7730;BME280;3908;52.310;7.230;2022-08-21T14:47:10;51460.00;;;-145.83;41.64
7730;BME280;3908;52.310;7.230;2022-08-21T14:49:57;51485.44;;;-145.83;42.06
7730;BME280;3908;52.310;7.230;2022-08-21T14:52:46;51450.22;;;-145.83;40.93
7730;BME280;3908;52.310;7.230;2022-08-21T14:55:33;51471.75;;;-145.83;41.33
7730;BME280;3908;52.310;7.230;2022-08-21T14:58:43;51465.88;;;-145.83;41.30
7730;BME280;3908;52.310;7.230;2022-08-21T15:01:32;51460.00;;;-145.83;43.61